Terminal Aerodrome Forecast
Issued by NWS Green Bay, WI

Home | Current Version | Previous Version | Graphics & Text | Print | Product List | Glossary On
Versions: 1 2 3 4 5 6 7 8 9 10 11 12 13 14 15 16 17 18 19 20 21 22 23 24 25 26 27 28 29 30 31 32 33 34 35 36 37 38 39 40 41 42 43
000
FTUS43 KGRB 311246 AAA
TAFGRB
TAF AMD
KGRB 311246Z 3113/0112 VRB03KT 1/4SM FG OVC002
      TEMPO 3113/3114 1 1/2SM BR BKN005
     FM311400 22005KT 5SM BR FEW005 BKN012
     FM311600 21007KT P6SM BKN025
     FM311800 19005KT P6SM SCT030
     FM010100 20003KT P6SM SKC
      TEMPO 0109/0112 3SM BR=

USA.gov is the U.S. government's official web portal to all federal, state and local government web resources and services.